Time;durP1;ratioP1;P1;durP2;ratioP2;P2;SDS_P1;SDS_P2;PMS_P1;PMS_P2;Temp;Humidity;BMP_temperature;BMP_pressure;BME280_temperature;BME280_humidity;BME280_pressure;Samples;Min_cycle;Max_cycle;Signal;HPM_P1;HPM_P2
2023/03/10 00:02:04;;;;;;;18.07;11.33;;;0.80;1.00;;;;;;5032924;28;20413;-73
2023/03/10 00:04:30;;;;;;;14.03;11.27;;;0.80;1.00;;;;;;5018070;28;20180;-73
2023/03/10 00:06:56;;;;;;;19.73;10.13;;;0.80;1.00;;;;;;5013126;28;20482;-72
2023/03/10 00:09:21;;;;;;;17.87;11.33;;;0.80;1.00;;;;;;5043762;28;20219;-74
2023/03/10 00:11:47;;;;;;;20.77;11.20;;;0.80;1.00;;;;;;5013239;28;20231;-72
2023/03/10 00:14:14;;;;;;;18.20;12.13;;;0.70;1.00;;;;;;5012192;28;20185;-74
2023/03/10 00:16:40;;;;;;;13.65;9.40;;;0.70;1.00;;;;;;5012417;28;20184;-74
2023/03/10 00:19:06;;;;;;;17.67;11.38;;;0.70;1.00;;;;;;5023111;28;20199;-75
2023/03/10 00:21:32;;;;;;;19.37;11.57;;;0.70;1.00;;;;;;5030633;28;20171;-75
2023/03/10 00:23:58;;;;;;;19.65;10.68;;;0.70;1.00;;;;;;5012202;28;20427;-75
2023/03/10 00:26:26;;;;;;;16.33;10.10;;;0.70;1.00;;;;;;5012134;28;20230;-73
2023/03/10 00:28:53;;;;;;;23.55;11.77;;;0.80;1.00;;;;;;5012809;28;20175;-73
2023/03/10 00:31:21;;;;;;;14.02;10.70;;;0.70;1.00;;;;;;5010870;28;20184;-73
2023/03/10 00:33:47;;;;;;;16.87;10.80;;;0.80;1.00;;;;;;5012305;28;20176;-75
2023/03/10 00:36:19;;;;;;;21.63;11.70;;;0.80;1.00;;;;;;5012010;28;20426;-75
2023/03/10 00:38:46;;;;;;;19.53;12.10;;;0.80;1.00;;;;;;5012764;28;20407;-73
2023/03/10 00:41:17;;;;;;;15.52;11.23;;;0.80;1.00;;;;;;5012916;28;20483;-74
2023/03/10 00:43:43;;;;;;;19.60;13.73;;;0.80;1.00;;;;;;5012120;28;20251;-74
2023/03/10 00:46:09;;;;;;;23.48;12.88;;;0.80;1.00;;;;;;5010633;28;20431;-72
2023/03/10 00:48:35;;;;;;;17.00;11.70;;;0.70;1.00;;;;;;5012515;28;20169;-75
2023/03/10 00:51:02;;;;;;;16.85;11.15;;;0.60;1.00;;;;;;5012886;28;20474;-74
2023/03/10 00:53:27;;;;;;;22.70;12.70;;;0.60;1.00;;;;;;5011370;28;20895;-75
2023/03/10 00:56:17;;;;;;;22.23;13.70;;;0.60;1.00;;;;;;5011748;28;20246;-76
2023/03/10 00:58:44;;;;;;;21.23;12.50;;;0.60;1.00;;;;;;5009756;28;20204;-72
2023/03/10 01:01:33;;;;;;;20.25;12.38;;;0.70;9.60;;;;;;5012796;28;20411;-75
2023/03/10 01:04:05;;;;;;;14.60;9.77;;;0.80;21.30;;;;;;5011480;28;20192;-74
2023/03/10 01:06:31;;;;;;;18.33;11.27;;;0.80;35.10;;;;;;5022478;28;20445;-75
2023/03/10 01:08:57;;;;;;;20.15;12.73;;;0.80;40.60;;;;;;5034082;28;20207;-74
2023/03/10 01:11:26;;;;;;;20.77;12.70;;;0.80;61.20;;;;;;5014956;28;20200;-75
2023/03/10 01:13:52;;;;;;;18.67;12.63;;;0.80;74.70;;;;;;5014389;28;20230;-74
2023/03/10 01:16:18;;;;;;;18.48;12.55;;;0.90;88.50;;;;;;5017807;28;20884;-75
2023/03/10 01:18:44;;;;;;;17.77;12.17;;;0.90;88.50;;;;;;5016051;28;20264;-73
2023/03/10 01:21:18;;;;;;;20.17;12.23;;;0.90;88.50;;;;;;5015715;28;20403;-74
2023/03/10 01:23:44;;;;;;;24.50;12.77;;;0.90;88.40;;;;;;5014401;28;20410;-73
2023/03/10 01:26:10;;;;;;;22.03;13.57;;;0.90;88.50;;;;;;5030883;28;20442;-74
2023/03/10 01:28:36;;;;;;;17.40;11.70;;;0.80;88.40;;;;;;5035656;28;20763;-74
2023/03/10 01:31:04;;;;;;;20.97;13.10;;;0.80;88.50;;;;;;5035819;28;20182;-75
2023/03/10 01:33:30;;;;;;;17.58;11.15;;;0.70;88.30;;;;;;5035634;28;20394;-73
2023/03/10 01:35:55;;;;;;;21.30;12.70;;;0.60;88.20;;;;;;5014861;28;20211;-75
2023/03/10 01:38:21;;;;;;;18.73;12.13;;;0.50;88.20;;;;;;5022128;28;20176;-74
2023/03/10 01:40:48;;;;;;;19.03;12.27;;;0.60;88.30;;;;;;5015608;28;20199;-73
2023/03/10 01:43:27;;;;;;;17.02;12.80;;;0.50;88.10;;;;;;5014331;28;20266;-76
2023/03/10 01:45:53;;;;;;;22.15;12.93;;;0.50;88.10;;;;;;5013910;28;20225;-75
2023/03/10 01:48:21;;;;;;;24.53;13.50;;;0.40;88.20;;;;;;5014190;28;20178;-75
2023/03/10 01:50:51;;;;;;;16.42;12.90;;;0.40;91.90;;;;;;5015474;28;20244;-73
2023/03/10 01:53:19;;;;;;;16.40;12.70;;;0.50;97.50;;;;;;5015370;28;20183;-74
2023/03/10 01:55:54;;;;;;;19.63;14.02;;;0.50;99.70;;;;;;5011677;28;20207;-75
2023/03/10 01:58:23;;;;;;;17.67;12.10;;;0.60;99.90;;;;;;5015164;28;20171;-75
2023/03/10 02:00:52;;;;;;;25.02;12.43;;;0.60;99.90;;;;;;5017289;28;20465;-75
2023/03/10 02:03:23;;;;;;;19.30;12.23;;;0.50;99.90;;;;;;5014837;28;20173;-78
2023/03/10 02:06:04;;;;;;;24.05;13.50;;;0.40;99.60;;;;;;5011149;28;20201;-73
2023/03/10 02:08:36;;;;;;;19.92;11.93;;;0.30;99.90;;;;;;5015162;28;20157;-75
2023/03/10 02:11:03;;;;;;;17.27;11.90;;;0.30;99.90;;;;;;5004158;28;20181;-73
2023/03/10 02:13:29;;;;;;;20.70;14.02;;;0.30;99.90;;;;;;4995148;28;20256;-74
2023/03/10 02:15:55;;;;;;;21.57;12.60;;;0.30;99.90;;;;;;5026355;28;20291;-76
2023/03/10 02:18:21;;;;;;;19.63;13.37;;;0.30;99.90;;;;;;5014955;28;20693;-75
2023/03/10 02:21:07;;;;;;;21.10;12.80;;;0.40;99.90;;;;;;5020773;28;20446;-75
2023/03/10 02:24:06;;;;;;;16.35;12.32;;;0.50;99.90;;;;;;5021065;28;20255;-74
2023/03/10 02:27:02;;;;;;;17.20;12.52;;;0.40;99.90;;;;;;4994295;28;20725;-75
2023/03/10 02:29:44;;;;;;;22.10;14.13;;;0.40;99.90;;;;;;4995127;28;20685;-75
2023/03/10 02:32:11;;;;;;;21.73;14.27;;;0.40;99.90;;;;;;4999036;28;20453;-75
2023/03/10 02:34:37;;;;;;;21.45;12.77;;;0.30;99.90;;;;;;5026097;28;20554;-75
2023/03/10 02:37:03;;;;;;;20.63;13.55;;;0.30;99.90;;;;;;5014606;28;20604;-73
2023/03/10 02:39:28;;;;;;;18.93;12.60;;;0.30;99.90;;;;;;5014448;28;20196;-75
2023/03/10 02:41:54;;;;;;;23.80;15.00;;;0.30;99.90;;;;;;5013515;28;20235;-75
2023/03/10 02:44:22;;;;;;;20.40;13.13;;;0.30;99.90;;;;;;5014993;28;20220;-75
2023/03/10 02:46:48;;;;;;;22.98;14.38;;;0.40;99.90;;;;;;5034024;28;20997;-73
2023/03/10 02:49:15;;;;;;;20.10;13.20;;;0.30;99.90;;;;;;5032579;28;20190;-74
2023/03/10 02:51:43;;;;;;;18.92;12.00;;;0.20;99.90;;;;;;5031777;28;20222;-73
2023/03/10 02:54:10;;;;;;;23.75;14.05;;;0.10;99.90;;;;;;5011963;28;20219;-75
2023/03/10 02:56:37;;;;;;;23.92;15.32;;;0.10;99.90;;;;;;5015457;28;20656;-75
2023/03/10 02:59:04;;;;;;;23.90;13.07;;;0.10;99.90;;;;;;5033863;28;20286;-73
2023/03/10 03:01:30;;;;;;;30.42;16.80;;;0.10;99.90;;;;;;5033892;28;20225;-75
2023/03/10 03:03:56;;;;;;;28.00;15.57;;;0.20;99.90;;;;;;5033687;28;20246;-77
2023/03/10 03:06:22;;;;;;;22.40;13.80;;;0.20;99.90;;;;;;5010951;28;20593;-74
2023/03/10 03:08:48;;;;;;;26.37;14.90;;;0.20;99.90;;;;;;5016644;28;20704;-74
2023/03/10 03:11:14;;;;;;;25.27;13.83;;;0.30;99.90;;;;;;5013240;28;20188;-76
2023/03/10 03:13:40;;;;;;;27.60;15.20;;;0.30;99.90;;;;;;5014006;28;20239;-75
2023/03/10 03:16:07;;;;;;;32.97;18.00;;;0.30;99.90;;;;;;5014887;28;20414;-74
2023/03/10 03:18:33;;;;;;;35.13;17.13;;;0.30;99.90;;;;;;5033595;28;20767;-76
2023/03/10 03:21:03;;;;;;;30.50;16.33;;;0.40;99.90;;;;;;5014275;28;20215;-75
2023/03/10 03:23:29;;;;;;;27.50;16.00;;;0.40;99.90;;;;;;5013801;28;20401;-75
2023/03/10 03:25:55;;;;;;;29.20;17.30;;;0.40;99.90;;;;;;5012795;28;20192;-73
2023/03/10 03:28:21;;;;;;;33.27;17.70;;;0.50;99.90;;;;;;5028501;28;20181;-73
2023/03/10 03:30:46;;;;;;;25.90;18.20;;;0.50;99.90;;;;;;5012535;28;20275;-75
2023/03/10 03:33:12;;;;;;;33.13;17.87;;;0.60;99.90;;;;;;5012946;28;20231;-75
2023/03/10 03:35:39;;;;;;;32.83;16.40;;;0.70;99.90;;;;;;5011350;28;20198;-73
2023/03/10 03:38:06;;;;;;;32.08;19.23;;;0.90;99.90;;;;;;5014786;28;20164;-75
2023/03/10 03:40:35;;;;;;;28.17;17.40;;;0.90;99.90;;;;;;5019281;28;20216;-75
2023/03/10 03:43:02;;;;;;;29.75;17.52;;;0.90;99.90;;;;;;5013330;28;20243;-74
2023/03/10 03:45:30;;;;;;;30.80;17.52;;;1.00;99.90;;;;;;5012370;28;20197;-75
2023/03/10 03:47:56;;;;;;;25.80;16.55;;;1.00;99.90;;;;;;5013482;28;20222;-75
2023/03/10 03:50:22;;;;;;;34.15;19.00;;;1.00;99.90;;;;;;5014510;28;20636;-73
2023/03/10 03:52:48;;;;;;;28.33;18.50;;;1.00;99.90;;;;;;5013453;28;20206;-72
2023/03/10 03:55:15;;;;;;;35.53;17.80;;;1.00;99.90;;;;;;5011096;28;20767;-73
2023/03/10 03:57:41;;;;;;;34.93;19.40;;;1.00;99.90;;;;;;5013418;28;20410;-74
2023/03/10 04:00:11;;;;;;;26.37;14.90;;;1.00;99.90;;;;;;5012289;28;20963;-75
2023/03/10 04:02:37;;;;;;;31.63;17.77;;;0.90;99.90;;;;;;5016097;28;20528;-73
2023/03/10 04:05:06;;;;;;;33.13;17.77;;;0.80;99.90;;;;;;5031962;28;20202;-74
2023/03/10 04:07:32;;;;;;;46.08;18.40;;;0.80;99.90;;;;;;5032889;28;20366;-73
2023/03/10 04:09:57;;;;;;;33.27;18.33;;;0.90;99.90;;;;;;5025372;28;20342;-74
2023/03/10 04:12:25;;;;;;;29.80;17.27;;;0.80;99.90;;;;;;5013179;28;20172;-74
2023/03/10 04:14:51;;;;;;;33.33;17.25;;;0.80;99.90;;;;;;5017867;28;20171;-73
2023/03/10 04:17:17;;;;;;;39.23;19.27;;;0.90;99.90;;;;;;5029730;28;20178;-74
2023/03/10 04:19:43;;;;;;;29.70;15.63;;;0.90;99.90;;;;;;5011028;28;20210;-76
2023/03/10 04:22:08;;;;;;;29.47;17.53;;;0.80;99.90;;;;;;5012247;28;20283;-75
2023/03/10 04:24:38;;;;;;;27.43;16.10;;;0.90;99.90;;;;;;5011161;28;20646;-75
2023/03/10 04:27:03;;;;;;;36.10;17.20;;;0.90;99.90;;;;;;5018802;28;20192;-73
2023/03/10 04:29:29;;;;;;;27.67;16.77;;;0.90;99.90;;;;;;5029184;28;20472;-75
2023/03/10 04:31:55;;;;;;;30.50;15.97;;;0.90;99.90;;;;;;5012936;28;20207;-75
2023/03/10 04:34:21;;;;;;;32.30;16.40;;;0.90;99.90;;;;;;5012154;28;20187;-73
2023/03/10 04:36:46;;;;;;;30.87;16.70;;;0.90;99.90;;;;;;5016171;28;20230;-75
2023/03/10 04:39:13;;;;;;;36.77;15.10;;;0.90;99.90;;;;;;5030593;28;20560;-78
2023/03/10 04:41:39;;;;;;;30.52;16.73;;;0.90;99.90;;;;;;4994310;28;20544;-75
2023/03/10 04:44:05;;;;;;;30.83;17.03;;;1.00;99.90;;;;;;4996951;28;20170;-75
2023/03/10 04:46:31;;;;;;;30.98;18.05;;;1.00;99.90;;;;;;5014057;28;20207;-74
2023/03/10 04:48:57;;;;;;;25.03;13.33;;;0.90;99.90;;;;;;5023262;28;20644;-75
2023/03/10 04:51:23;;;;;;;24.40;14.57;;;0.90;99.90;;;;;;5017678;28;20180;-75
2023/03/10 04:53:49;;;;;;;27.57;16.57;;;1.00;99.90;;;;;;5016434;28;20171;-75
2023/03/10 04:56:15;;;;;;;24.88;14.93;;;0.90;99.90;;;;;;5015550;28;20196;-72
2023/03/10 04:58:41;;;;;;;29.90;16.00;;;1.00;99.90;;;;;;5016450;28;20545;-75
2023/03/10 05:01:08;;;;;;;25.80;16.47;;;1.00;99.90;;;;;;5014609;28;20184;-73
2023/03/10 05:03:34;;;;;;;23.23;14.63;;;1.00;99.90;;;;;;4996712;28;20173;-73
2023/03/10 05:06:00;;;;;;;29.30;15.23;;;1.00;99.90;;;;;;4995634;28;20554;-75
2023/03/10 05:08:25;;;;;;;28.23;16.10;;;1.00;99.90;;;;;;5004305;28;20191;-72
2023/03/10 05:10:51;;;;;;;24.07;14.67;;;0.90;99.90;;;;;;5014491;28;20172;-73
2023/03/10 05:13:17;;;;;;;22.63;14.73;;;0.90;99.90;;;;;;5015478;28;20179;-74
2023/03/10 05:15:42;;;;;;;26.03;16.77;;;0.90;99.90;;;;;;5014857;28;20188;-74
2023/03/10 05:18:10;;;;;;;27.70;14.80;;;0.90;99.90;;;;;;5016061;28;20647;-75
2023/03/10 05:20:37;;;;;;;22.90;15.15;;;1.00;99.90;;;;;;5015205;28;20206;-74
2023/03/10 05:23:03;;;;;;;23.17;13.88;;;1.10;99.90;;;;;;5022468;28;20233;-75
2023/03/10 05:25:29;;;;;;;28.13;16.25;;;1.10;99.90;;;;;;5022699;28;20200;-75
2023/03/10 05:27:54;;;;;;;30.10;15.80;;;1.10;99.90;;;;;;5015847;28;20203;-75
2023/03/10 05:30:20;;;;;;;28.20;15.87;;;1.10;99.90;;;;;;5015180;28;20442;-72
2023/03/10 05:32:46;;;;;;;29.73;16.20;;;1.10;99.90;;;;;;5015605;28;20230;-72
2023/03/10 05:35:12;;;;;;;24.27;14.50;;;1.00;99.90;;;;;;5020907;28;20202;-76
2023/03/10 05:37:40;;;;;;;27.92;16.08;;;1.00;99.90;;;;;;5035551;28;20178;-71
2023/03/10 05:40:14;;;;;;;26.38;15.15;;;1.00;99.90;;;;;;5031292;28;20207;-76
2023/03/10 05:42:40;;;;;;;20.95;13.82;;;1.00;99.90;;;;;;5015729;28;20215;-73
2023/03/10 05:45:07;;;;;;;27.50;16.07;;;1.00;99.90;;;;;;5014856;28;20200;-72
2023/03/10 05:47:33;;;;;;;25.60;15.38;;;1.00;99.90;;;;;;5024424;28;20875;-75
2023/03/10 05:49:59;;;;;;;25.20;15.55;;;1.00;99.90;;;;;;5031952;28;20306;-76
2023/03/10 05:52:26;;;;;;;23.13;14.07;;;1.10;99.90;;;;;;5015151;28;20179;-75
2023/03/10 05:54:52;;;;;;;19.73;12.32;;;1.20;99.90;;;;;;5011537;28;20188;-72
2023/03/10 05:57:17;;;;;;;27.07;15.20;;;1.10;99.90;;;;;;5014591;28;20263;-72
2023/03/10 05:59:43;;;;;;;20.50;13.50;;;1.10;99.90;;;;;;5020658;28;20683;-72
2023/03/10 06:02:09;;;;;;;23.20;15.43;;;1.10;99.90;;;;;;5012430;28;20187;-71
2023/03/10 06:04:35;;;;;;;20.23;12.17;;;1.10;99.90;;;;;;5014228;28;20175;-73
2023/03/10 06:07:01;;;;;;;20.43;13.90;;;1.10;99.90;;;;;;5014927;28;20950;-72
2023/03/10 06:09:29;;;;;;;20.73;14.13;;;1.10;99.90;;;;;;5014351;28;20463;-71
2023/03/10 06:11:55;;;;;;;20.92;14.27;;;1.20;99.90;;;;;;5021432;28;20526;-75
2023/03/10 06:14:21;;;;;;;19.38;12.80;;;1.20;99.90;;;;;;5015104;28;20652;-76
2023/03/10 06:16:50;;;;;;;24.33;13.67;;;1.10;99.90;;;;;;5014864;28;20287;-72
2023/03/10 06:19:17;;;;;;;25.17;13.27;;;1.20;99.90;;;;;;5014860;28;20192;-74
2023/03/10 06:21:43;;;;;;;18.90;13.50;;;1.10;99.90;;;;;;5019554;28;20180;-71
2023/03/10 06:24:09;;;;;;;25.23;14.80;;;1.20;99.90;;;;;;5033941;28;20168;-72
2023/03/10 06:26:34;;;;;;;18.60;11.20;;;1.20;99.90;;;;;;5032764;28;20645;-76
2023/03/10 06:29:00;;;;;;;25.90;13.20;;;1.20;99.90;;;;;;5029576;28;20184;-74
2023/03/10 06:31:26;;;;;;;18.63;13.10;;;1.30;99.90;;;;;;5013776;28;20211;-74
2023/03/10 06:33:52;;;;;;;24.20;13.77;;;1.20;99.90;;;;;;5019081;28;20176;-74
2023/03/10 06:36:18;;;;;;;20.77;12.50;;;1.30;99.90;;;;;;5028368;28;20795;-73
2023/03/10 06:38:44;;;;;;;25.33;14.15;;;1.20;99.90;;;;;;5014564;28;20418;-72
2023/03/10 06:41:10;;;;;;;24.37;14.17;;;1.20;99.90;;;;;;5045372;28;20212;-72
2023/03/10 06:43:36;;;;;;;20.23;13.30;;;1.20;99.90;;;;;;5034316;28;20175;-72
2023/03/10 06:46:06;;;;;;;19.50;14.70;;;1.30;99.90;;;;;;5033314;28;20227;-68
2023/03/10 06:48:33;;;;;;;25.42;13.43;;;1.20;99.90;;;;;;5034205;28;20648;-70
2023/03/10 06:50:58;;;;;;;20.00;12.05;;;1.30;99.90;;;;;;5025733;28;20187;-69
2023/03/10 06:53:25;;;;;;;17.07;13.83;;;1.40;99.90;;;;;;5011647;28;20546;-69
2023/03/10 06:56:09;;;;;;;19.27;13.27;;;1.30;99.90;;;;;;5021754;28;20227;-73
2023/03/10 06:58:38;;;;;;;18.23;12.32;;;1.40;99.90;;;;;;5033807;28;20183;-70
2023/03/10 07:01:04;;;;;;;20.25;14.20;;;1.40;99.90;;;;;;5024608;28;20200;-71
2023/03/10 07:03:30;;;;;;;18.92;12.80;;;1.40;99.90;;;;;;5013260;28;20179;-74
2023/03/10 07:05:59;;;;;;;18.77;13.10;;;1.30;99.90;;;;;;5017914;28;20290;-72
2023/03/10 07:08:26;;;;;;;20.60;12.73;;;1.40;99.90;;;;;;5033322;28;20175;-71
2023/03/10 07:10:52;;;;;;;20.52;13.63;;;1.30;99.90;;;;;;5026747;28;20195;-74
2023/03/10 07:13:18;;;;;;;21.17;15.57;;;1.40;99.90;;;;;;5013984;28;20546;-71
2023/03/10 07:15:45;;;;;;;21.50;14.73;;;1.40;99.90;;;;;;5012866;28;20184;-71
2023/03/10 07:18:11;;;;;;;23.65;14.32;;;1.40;99.90;;;;;;5022292;28;20673;-71
2023/03/10 07:20:41;;;;;;;23.48;13.45;;;1.30;99.90;;;;;;5028450;28;20286;-73
2023/03/10 07:23:07;;;;;;;16.77;12.65;;;1.30;99.90;;;;;;4994279;28;20201;-72
2023/03/10 07:25:37;;;;;;;19.50;13.43;;;1.40;99.90;;;;;;4993227;28;20272;-74
2023/03/10 07:28:04;;;;;;;19.45;13.50;;;1.50;99.90;;;;;;5008660;28;20454;-74
2023/03/10 07:30:31;;;;;;;19.17;12.17;;;1.40;99.90;;;;;;5029155;28;20183;-72
2023/03/10 07:32:57;;;;;;;16.38;11.68;;;1.50;99.90;;;;;;5010483;28;20431;-74
2023/03/10 07:35:22;;;;;;;19.13;13.30;;;1.50;99.90;;;;;;5012163;28;20196;-75
2023/03/10 07:37:48;;;;;;;16.97;12.00;;;1.50;99.90;;;;;;5012177;28;20215;-71
2023/03/10 07:40:14;;;;;;;15.60;12.57;;;1.50;99.90;;;;;;5010428;28;20558;-76
2023/03/10 07:42:42;;;;;;;20.60;12.80;;;1.50;99.90;;;;;;5013343;28;20168;-76
2023/03/10 07:45:08;;;;;;;21.45;12.43;;;1.50;99.90;;;;;;5011297;28;20208;-75
2023/03/10 07:47:34;;;;;;;17.85;12.10;;;1.60;99.90;;;;;;5012043;28;20192;-75
2023/03/10 07:49:59;;;;;;;19.50;11.70;;;1.70;99.90;;;;;;5013434;28;20235;-76
2023/03/10 07:52:27;;;;;;;17.97;12.43;;;1.80;99.90;;;;;;5015484;28;20255;-75
2023/03/10 07:54:53;;;;;;;16.92;11.82;;;1.80;99.90;;;;;;5022904;28;20176;-75
2023/03/10 07:57:19;;;;;;;15.60;10.73;;;1.80;99.90;;;;;;5019069;28;20219;-71
2023/03/10 07:59:45;;;;;;;19.93;12.53;;;1.80;99.90;;;;;;5013323;28;20299;-75
2023/03/10 08:02:12;;;;;;;17.87;11.50;;;1.90;99.90;;;;;;5016787;28;20418;-72
2023/03/10 08:04:38;;;;;;;16.83;12.60;;;1.90;99.90;;;;;;5032090;28;20426;-71
2023/03/10 08:07:04;;;;;;;19.83;12.85;;;1.80;99.90;;;;;;5021728;28;20267;-72
2023/03/10 08:09:30;;;;;;;21.57;14.17;;;1.90;99.90;;;;;;5013220;28;20677;-75
2023/03/10 08:11:57;;;;;;;20.17;12.43;;;1.80;99.90;;;;;;5014485;28;20178;-74
2023/03/10 08:14:23;;;;;;;22.88;13.73;;;1.80;99.90;;;;;;5029978;28;20174;-72
2023/03/10 08:16:50;;;;;;;20.87;12.70;;;1.90;99.90;;;;;;5026967;28;20200;-72
2023/03/10 08:19:16;;;;;;;25.97;14.30;;;1.90;99.90;;;;;;5016920;28;20446;-73
2023/03/10 08:21:42;;;;;;;21.67;14.57;;;1.90;99.90;;;;;;5015966;28;20415;-75
2023/03/10 08:24:08;;;;;;;24.63;15.43;;;1.90;99.90;;;;;;5018423;28;20167;-72
2023/03/10 08:26:34;;;;;;;23.67;15.10;;;1.80;99.90;;;;;;5018992;28;20793;-74
2023/03/10 08:29:00;;;;;;;24.70;15.67;;;1.90;99.90;;;;;;5016464;28;20430;-72
2023/03/10 08:31:26;;;;;;;23.77;14.52;;;1.90;99.90;;;;;;5016975;28;20404;-73
2023/03/10 08:33:55;;;;;;;28.03;15.80;;;1.80;99.90;;;;;;5016866;28;20175;-75
2023/03/10 08:36:24;;;;;;;24.40;14.88;;;1.80;99.90;;;;;;5014430;28;20446;-72
2023/03/10 08:38:51;;;;;;;23.00;15.27;;;1.80;99.90;;;;;;5014428;28;20641;-76
2023/03/10 08:41:32;;;;;;;18.75;13.25;;;1.90;99.90;;;;;;5016733;28;20230;-75
2023/03/10 08:43:59;;;;;;;19.87;14.60;;;2.00;99.90;;;;;;5016865;28;20224;-72
2023/03/10 08:46:27;;;;;;;25.30;17.10;;;2.10;99.90;;;;;;5014868;28;20446;-71
2023/03/10 08:48:53;;;;;;;20.77;13.80;;;2.10;99.90;;;;;;5015487;28;20461;-71
2023/03/10 08:51:19;;;;;;;21.23;14.77;;;2.10;99.90;;;;;;5015370;28;20411;-73
2023/03/10 08:53:47;;;;;;;18.70;13.53;;;2.10;99.90;;;;;;5015465;28;20426;-72
2023/03/10 08:56:14;;;;;;;22.27;14.33;;;2.10;99.90;;;;;;5017724;28;20442;-75
2023/03/10 08:58:40;;;;;;;20.53;13.20;;;2.00;99.90;;;;;;5013777;28;20753;-73
2023/03/10 09:01:06;;;;;;;22.10;14.17;;;2.00;99.90;;;;;;5016469;28;20978;-75
2023/03/10 09:03:34;;;;;;;23.87;14.10;;;2.00;99.90;;;;;;5016340;28;20391;-72
2023/03/10 09:06:00;;;;;;;19.43;14.00;;;2.20;99.90;;;;;;5014250;28;20443;-73
2023/03/10 09:08:26;;;;;;;19.70;15.30;;;2.20;99.90;;;;;;5015619;28;20488;-75
2023/03/10 09:10:52;;;;;;;23.70;13.97;;;2.30;99.90;;;;;;5016037;28;20181;-72
2023/03/10 09:13:17;;;;;;;22.03;13.10;;;2.30;99.90;;;;;;5016165;28;20572;-74
2023/03/10 09:15:43;;;;;;;22.40;15.40;;;2.40;99.90;;;;;;5046196;28;20289;-73
2023/03/10 09:18:11;;;;;;;17.80;13.30;;;2.50;99.90;;;;;;5000320;28;20181;-77
2023/03/10 09:20:39;;;;;;;23.03;14.27;;;2.50;99.90;;;;;;5004530;28;20205;-72
2023/03/10 09:23:06;;;;;;;22.10;15.23;;;2.60;99.90;;;;;;4996621;28;20483;-75
2023/03/10 09:25:32;;;;;;;17.77;12.43;;;2.70;99.90;;;;;;5001169;28;20556;-74
2023/03/10 09:27:58;;;;;;;21.10;14.07;;;2.70;98.80;;;;;;5005016;28;21123;-71
2023/03/10 09:30:24;;;;;;;20.47;14.53;;;2.70;94.80;;;;;;5013589;28;20430;-73
2023/03/10 09:32:50;;;;;;;21.33;14.17;;;2.70;89.80;;;;;;5011528;28;20476;-78
2023/03/10 09:35:16;;;;;;;15.27;12.50;;;2.60;89.70;;;;;;5034600;28;20480;-75
2023/03/10 09:37:41;;;;;;;21.47;16.47;;;2.60;89.80;;;;;;5027799;28;20553;-76
2023/03/10 09:40:11;;;;;;;19.73;13.97;;;2.50;89.70;;;;;;5017810;28;20195;-75
2023/03/10 09:42:47;;;;;;;20.55;14.07;;;2.40;89.60;;;;;;5034157;28;20252;-75
2023/03/10 09:45:25;;;;;;;18.05;13.20;;;2.40;89.60;;;;;;5032897;28;20240;-76
2023/03/10 09:48:00;;;;;;;17.30;13.40;;;2.50;89.70;;;;;;5024792;28;20552;-73
2023/03/10 09:50:45;;;;;;;18.70;12.40;;;2.60;89.80;;;;;;5014007;28;21003;-76
2023/03/10 09:53:37;;;;;;;18.93;12.30;;;2.80;89.90;;;;;;5015561;28;20418;-76
2023/03/10 09:56:14;;;;;;;14.97;11.00;;;2.80;89.90;;;;;;5024440;28;20464;-74
2023/03/10 09:59:08;;;;;;;11.07;9.63;;;2.90;68.60;;;;;;5028752;28;21050;-71
2023/03/10 10:01:34;;;;;;;17.00;11.43;;;2.90;39.50;;;;;;5028476;28;20655;-74
2023/03/10 10:04:26;;;;;;;15.10;10.37;;;3.00;27.80;;;;;;5034946;28;20950;-78
2023/03/10 10:06:53;;;;;;;14.23;10.83;;;3.10;18.00;;;;;;5034829;28;20493;-75
2023/03/10 10:09:42;;;;;;;16.00;10.67;;;3.20;13.50;;;;;;5023910;28;20474;-74
2023/03/10 10:12:13;;;;;;;10.73;9.23;;;3.30;13.90;;;;;;4995455;28;20408;-71
2023/03/10 10:14:39;;;;;;;12.60;9.80;;;3.50;9.90;;;;;;4994599;28;20402;-75
2023/03/10 10:17:24;;;;;;;12.90;9.90;;;3.60;1.00;;;;;;5002112;28;20423;-75
2023/03/10 10:19:52;;;;;;;12.50;8.97;;;3.70;1.00;;;;;;5045987;28;20462;-76
2023/03/10 10:22:25;;;;;;;13.20;10.40;;;3.60;1.00;;;;;;5032487;28;20441;-74
2023/03/10 10:25:13;;;;;;;13.50;9.37;;;3.40;1.00;;;;;;5033603;28;20448;-71
2023/03/10 10:27:41;;;;;;;13.87;9.70;;;3.20;1.00;;;;;;5034650;28;20425;-71
2023/03/10 10:30:26;;;;;;;10.73;9.27;;;3.10;1.00;;;;;;5015471;28;20787;-76
2023/03/10 10:33:12;;;;;;;13.23;11.37;;;3.10;1.00;;;;;;5009176;28;20430;-75
2023/03/10 10:35:57;;;;;;;12.10;9.40;;;3.20;1.00;;;;;;4994157;28;20428;-71
2023/03/10 10:38:29;;;;;;;14.57;10.07;;;3.10;1.00;;;;;;5011106;28;20509;-72
2023/03/10 10:41:01;;;;;;;23.83;10.33;;;3.10;1.00;;;;;;5013979;28;20538;-71
2023/03/10 10:43:27;;;;;;;12.00;9.63;;;3.10;1.00;;;;;;5014236;28;20392;-72
2023/03/10 10:46:07;;;;;;;12.87;10.67;;;3.20;1.00;;;;;;5012623;28;20493;-76
2023/03/10 10:48:42;;;;;;;12.97;10.47;;;3.20;1.00;;;;;;5012460;28;20433;-73
2023/03/10 10:51:29;;;;;;;12.43;10.80;;;3.10;1.00;;;;;;5014368;28;20398;-72
2023/03/10 10:53:56;;;;;;;14.70;9.70;;;3.00;1.00;;;;;;5014351;28;20409;-71
2023/03/10 10:56:23;;;;;;;17.90;11.77;;;2.90;1.00;;;;;;5013341;28;20423;-70
2023/03/10 10:59:20;;;;;;;17.13;11.03;;;2.90;1.00;;;;;;5013609;28;20447;-71
2023/03/10 11:01:50;;;;;;;18.23;11.10;;;2.90;1.00;;;;;;5032785;28;20419;-75
2023/03/10 11:04:16;;;;;;;13.93;10.48;;;2.90;1.00;;;;;;5033658;28;20399;-75
2023/03/10 11:06:42;;;;;;;13.10;11.27;;;2.90;1.00;;;;;;5030027;28;20230;-76
2023/03/10 11:09:17;;;;;;;13.13;10.70;;;2.90;1.00;;;;;;5013407;28;20513;-76
2023/03/10 11:11:43;;;;;;;13.00;11.10;;;3.00;1.00;;;;;;5025557;28;20186;-70
2023/03/10 11:14:38;;;;;;;14.67;11.23;;;3.00;1.00;;;;;;5015731;28;20427;-75
2023/03/10 11:17:49;;;;;;;13.37;10.47;;;3.10;1.00;;;;;;5044149;28;20196;-76
2023/03/10 11:20:26;;;;;;;14.87;11.07;;;3.10;1.00;;;;;;5013577;28;20483;-72
2023/03/10 11:23:12;;;;;;;17.70;12.93;;;3.10;1.00;;;;;;5013831;28;20476;-75
2023/03/10 11:25:40;;;;;;;19.13;11.10;;;3.20;1.00;;;;;;5012863;28;20427;-72
2023/03/10 11:28:15;;;;;;;13.17;10.43;;;3.20;1.00;;;;;;5019510;28;20422;-75
2023/03/10 11:30:56;;;;;;;15.30;10.43;;;3.30;1.00;;;;;;5028205;28;20934;-75
2023/03/10 11:33:44;;;;;;;18.17;10.23;;;3.30;1.00;;;;;;5027815;28;20431;-71
2023/03/10 11:36:27;;;;;;;14.20;10.50;;;3.30;1.00;;;;;;5020254;28;20955;-71
2023/03/10 11:39:02;;;;;;;11.20;10.03;;;3.20;1.00;;;;;;5028394;28;20529;-75
2023/03/10 11:41:32;;;;;;;13.73;9.87;;;3.20;1.00;;;;;;5012845;28;20434;-75
2023/03/10 11:44:18;;;;;;;9.37;8.37;;;3.20;1.00;;;;;;5012704;28;20430;-75
2023/03/10 11:47:14;;;;;;;14.60;8.93;;;3.20;1.00;;;;;;4993799;28;20429;-71
2023/03/10 11:49:42;;;;;;;17.40;9.80;;;3.20;1.00;;;;;;4993842;28;20404;-75
2023/03/10 11:52:16;;;;;;;12.27;9.03;;;3.30;1.00;;;;;;4993585;28;20405;-70
2023/03/10 11:54:48;;;;;;;14.93;9.33;;;3.40;1.00;;;;;;5031299;28;20430;-72
2023/03/10 11:57:18;;;;;;;14.47;10.03;;;3.40;1.00;;;;;;5013377;28;20399;-74
2023/03/10 11:59:58;;;;;;;11.53;10.30;;;3.30;1.00;;;;;;5013286;28;20454;-75
2023/03/10 12:02:28;;;;;;;12.30;9.97;;;3.20;1.00;;;;;;5012407;28;20828;-75
2023/03/10 12:05:09;;;;;;;20.43;10.50;;;3.30;1.00;;;;;;5013096;28;20433;-71
2023/03/10 12:07:47;;;;;;;12.67;9.53;;;3.50;1.00;;;;;;5005144;28;20423;-70
2023/03/10 12:10:18;;;;;;;11.83;9.40;;;3.40;1.00;;;;;;5012872;28;20403;-70
2023/03/10 12:12:46;;;;;;;10.60;9.57;;;3.40;1.00;;;;;;5019695;28;20771;-74
2023/03/10 12:15:11;;;;;;;13.83;10.63;;;3.40;1.00;;;;;;5030963;28;20823;-75
2023/03/10 12:17:40;;;;;;;11.20;9.07;;;3.30;1.00;;;;;;5030054;28;20414;-75
2023/03/10 12:20:17;;;;;;;13.90;10.70;;;3.30;1.00;;;;;;5013193;28;20203;-75
2023/03/10 12:22:50;;;;;;;13.40;10.30;;;3.30;1.00;;;;;;5021121;28;20461;-70
2023/03/10 12:25:28;;;;;;;15.40;11.87;;;3.40;1.00;;;;;;5031785;28;20428;-70
2023/03/10 12:28:16;;;;;;;20.70;12.20;;;3.40;1.00;;;;;;5029339;28;20949;-75
2023/03/10 12:30:49;;;;;;;12.40;10.17;;;3.40;1.00;;;;;;5013080;28;20395;-69
2023/03/10 12:33:32;;;;;;;14.70;11.40;;;3.30;1.00;;;;;;5012887;28;20415;-67
2023/03/10 12:36:19;;;;;;;15.37;10.40;;;3.30;1.00;;;;;;5010586;28;20538;-71
2023/03/10 12:39:03;;;;;;;18.60;12.30;;;3.30;1.00;;;;;;5012308;28;20435;-75
2023/03/10 12:41:29;;;;;;;13.07;10.83;;;3.20;1.00;;;;;;5044705;28;20509;-75
2023/03/10 12:44:14;;;;;;;14.80;11.27;;;3.20;1.00;;;;;;5012980;28;20413;-70
2023/03/10 12:46:49;;;;;;;20.10;11.63;;;3.30;1.00;;;;;;5025379;28;20471;-69
2023/03/10 12:49:24;;;;;;;15.57;11.23;;;3.30;1.00;;;;;;5018717;28;20426;-71
2023/03/10 12:52:00;;;;;;;17.40;13.00;;;3.30;1.00;;;;;;5010790;28;20426;-69
2023/03/10 12:54:48;;;;;;;13.97;10.87;;;3.40;1.00;;;;;;5010560;28;21017;-69